Time;durP1;ratioP1;P1;durP2;ratioP2;P2;SDS_P1;SDS_P2;PMS_P1;PMS_P2;Temp;Humidity;BMP_temperature;BMP_pressure;BME280_temperature;BME280_humidity;BME280_pressure;Samples;Min_cycle;Max_cycle;Signal;HPM_P1;HPM_P2
2022/11/21 00:01:01;;;;;;;1999.90;999.90;;;5.70;99.90;;;;;;4990240;28;20446;-71
2022/11/21 00:03:27;;;;;;;1999.90;999.90;;;5.80;99.90;;;;;;4990118;28;20450;-71
2022/11/21 00:05:54;;;;;;;1999.90;999.90;;;5.90;99.90;;;;;;4990127;28;20450;-70
2022/11/21 00:08:22;;;;;;;1999.90;999.90;;;6.00;99.90;;;;;;4971542;28;20482;-70
2022/11/21 00:10:49;;;;;;;1999.90;999.90;;;6.10;99.90;;;;;;4978615;28;20509;-71
2022/11/21 00:13:18;;;;;;;1999.90;999.90;;;6.10;99.90;;;;;;4979006;28;20893;-71
2022/11/21 00:15:47;;;;;;;1999.90;999.90;;;6.20;99.90;;;;;;4970341;28;20452;-71
2022/11/21 00:18:14;;;;;;;1999.90;999.90;;;6.20;99.90;;;;;;4970216;28;20490;-70
2022/11/21 00:20:41;;;;;;;1999.90;999.90;;;6.30;99.90;;;;;;4969937;28;20455;-70
2022/11/21 00:23:09;;;;;;;1999.90;999.90;;;6.30;99.90;;;;;;4970555;28;20458;-71
2022/11/21 00:25:36;;;;;;;1999.90;999.90;;;6.30;99.90;;;;;;4971516;28;20659;-71
2022/11/21 00:28:03;;;;;;;1999.90;999.90;;;6.30;99.90;;;;;;4971496;28;20984;-71
2022/11/21 00:30:30;;;;;;;1999.90;999.90;;;6.30;99.90;;;;;;4971041;28;20474;-71
2022/11/21 00:32:59;;;;;;;1999.90;999.90;;;6.30;99.90;;;;;;4971147;28;20452;-71
2022/11/21 00:35:26;;;;;;;1999.90;999.90;;;6.30;99.90;;;;;;4970914;28;20447;-71
2022/11/21 00:37:53;;;;;;;1999.90;999.90;;;6.30;99.90;;;;;;4971147;28;20479;-71
2022/11/21 00:40:19;;;;;;;1999.90;999.90;;;6.30;99.90;;;;;;4978628;28;20468;-71
2022/11/21 00:42:46;;;;;;;1999.90;999.90;;;6.30;99.90;;;;;;4985987;28;20442;-71
2022/11/21 00:45:13;;;;;;;1999.90;999.90;;;6.20;99.90;;;;;;4990633;28;20446;-71
2022/11/21 00:47:40;;;;;;;1999.90;999.90;;;6.20;99.90;;;;;;4989949;28;20443;-71
2022/11/21 00:50:09;;;;;;;1999.90;999.90;;;6.20;99.90;;;;;;4990366;28;20473;-71
2022/11/21 00:52:36;;;;;;;1999.90;999.90;;;6.10;99.90;;;;;;4990767;28;20446;-72
2022/11/21 00:55:02;;;;;;;1999.90;999.90;;;6.00;99.90;;;;;;4974856;28;20819;-72
2022/11/21 00:57:29;;;;;;;1999.90;999.90;;;6.00;99.90;;;;;;4970443;28;20208;-72
2022/11/21 00:59:56;;;;;;;1999.90;999.90;;;5.80;99.90;;;;;;4970719;28;20830;-72
2022/11/21 01:02:23;;;;;;;1999.90;999.90;;;5.80;99.90;;;;;;4970829;28;21136;-72
2022/11/21 01:04:49;;;;;;;1999.90;999.90;;;5.80;99.90;;;;;;4970814;28;20944;-72
2022/11/21 01:07:17;;;;;;;1999.90;999.90;;;5.80;99.90;;;;;;4970841;28;20956;-72
2022/11/21 01:09:44;;;;;;;1999.90;999.90;;;5.80;99.90;;;;;;4970421;28;20467;-72
2022/11/21 01:12:11;;;;;;;1999.90;999.90;;;5.90;99.90;;;;;;4970931;28;20452;-72
2022/11/21 01:14:38;;;;;;;1999.90;999.90;;;5.90;99.90;;;;;;4970716;28;20459;-72
2022/11/21 01:17:05;;;;;;;1999.90;999.90;;;5.90;99.90;;;;;;4970666;28;20455;-72
2022/11/21 01:19:31;;;;;;;1999.90;999.90;;;5.90;99.90;;;;;;4970538;28;20489;-72
2022/11/21 01:21:58;;;;;;;1999.90;999.90;;;6.00;99.90;;;;;;4970682;28;20447;-72
2022/11/21 01:24:26;;;;;;;1999.90;999.90;;;5.90;99.90;;;;;;4970750;28;20829;-72
2022/11/21 01:26:54;;;;;;;1999.90;999.90;;;5.90;99.90;;;;;;4970523;28;20452;-72
2022/11/21 01:29:21;;;;;;;1999.90;999.90;;;6.00;99.90;;;;;;4970253;28;20488;-72
2022/11/21 01:31:48;;;;;;;1999.90;999.90;;;6.00;99.90;;;;;;4970793;28;20458;-72
2022/11/21 01:34:15;;;;;;;1999.90;999.90;;;6.00;99.90;;;;;;4970826;28;20452;-71
2022/11/21 01:36:42;;;;;;;1999.90;999.90;;;6.00;99.90;;;;;;4970749;28;20470;-71
2022/11/21 01:39:11;;;;;;;1999.90;999.90;;;6.00;99.90;;;;;;4970044;28;20498;-72
2022/11/21 01:41:42;;;;;;;1999.90;999.90;;;5.90;99.90;;;;;;4970414;28;20452;-71
2022/11/21 01:44:17;;;;;;;1999.90;999.90;;;5.80;99.90;;;;;;4970391;28;20458;-71
2022/11/21 01:46:44;;;;;;;1999.90;999.90;;;5.80;99.90;;;;;;4970718;28;20455;-72
2022/11/21 01:49:13;;;;;;;1999.90;999.90;;;5.80;99.90;;;;;;4970098;28;20478;-72
2022/11/21 01:51:45;;;;;;;1999.90;999.90;;;5.80;99.90;;;;;;4970743;28;20471;-72
2022/11/21 01:54:16;;;;;;;1999.90;999.90;;;5.80;99.90;;;;;;4970285;28;21156;-71
2022/11/21 01:56:49;;;;;;;1999.90;999.90;;;5.80;99.90;;;;;;4970627;28;20451;-71
2022/11/21 01:59:21;;;;;;;1999.90;999.90;;;5.70;99.90;;;;;;4970002;28;20487;-71
2022/11/21 02:01:51;;;;;;;1999.90;999.90;;;5.70;99.90;;;;;;4973794;28;20451;-71
2022/11/21 02:04:18;;;;;;;1999.90;999.90;;;5.70;99.90;;;;;;4974092;28;21041;-71
2022/11/21 02:06:45;;;;;;;1999.90;999.90;;;5.70;99.90;;;;;;4973485;28;20455;-71
2022/11/21 02:09:12;;;;;;;1999.90;999.90;;;5.60;99.90;;;;;;4973096;28;20479;-72
2022/11/21 02:11:43;;;;;;;1999.90;999.90;;;5.60;99.90;;;;;;4973519;28;20463;-71
2022/11/21 02:14:12;;;;;;;1999.90;999.90;;;5.60;99.90;;;;;;4973719;28;20455;-72
2022/11/21 02:16:39;;;;;;;1999.90;999.90;;;5.60;99.90;;;;;;4973715;28;20451;-71
2022/11/21 02:19:10;;;;;;;1999.90;999.90;;;5.60;99.90;;;;;;4972978;28;20487;-71
2022/11/21 02:21:46;;;;;;;1999.90;999.90;;;5.60;99.90;;;;;;4973500;28;20448;-71
2022/11/21 02:24:18;;;;;;;1999.90;999.90;;;5.50;99.90;;;;;;4973688;28;20451;-72
2022/11/21 02:26:48;;;;;;;1999.90;999.90;;;5.50;99.90;;;;;;4973544;28;20455;-71
2022/11/21 02:29:15;;;;;;;1999.90;999.90;;;5.60;99.90;;;;;;4972929;28;20460;-72
2022/11/21 02:31:42;;;;;;;1999.90;999.90;;;5.60;99.90;;;;;;4973283;28;20479;-72
2022/11/21 02:34:09;;;;;;;1999.90;999.90;;;5.60;99.90;;;;;;4973135;28;20458;-72
2022/11/21 02:36:41;;;;;;;1999.90;999.90;;;5.60;99.90;;;;;;4986621;28;20450;-71
2022/11/21 02:39:11;;;;;;;1999.90;999.90;;;5.60;99.90;;;;;;4992298;28;20531;-72
2022/11/21 02:41:42;;;;;;;1999.90;999.90;;;5.50;99.90;;;;;;4991743;28;21192;-72
2022/11/21 02:44:17;;;;;;;1999.90;999.90;;;5.50;99.90;;;;;;4992703;28;20204;-72
2022/11/21 02:46:48;;;;;;;1999.90;999.90;;;5.50;99.90;;;;;;4992423;28;20437;-71
2022/11/21 02:49:19;;;;;;;1999.90;999.90;;;5.50;99.90;;;;;;4992530;28;20517;-72
2022/11/21 02:51:46;;;;;;;1999.90;999.90;;;5.50;99.90;;;;;;4992626;28;20858;-71
2022/11/21 02:54:13;;;;;;;1999.90;999.90;;;5.40;99.90;;;;;;4992784;28;20828;-71
2022/11/21 02:56:39;;;;;;;1999.90;999.90;;;5.40;99.90;;;;;;4992280;28;20447;-72
2022/11/21 02:59:06;;;;;;;1999.90;999.90;;;5.40;99.90;;;;;;4991609;28;20487;-72
2022/11/21 03:01:34;;;;;;;1999.90;999.90;;;5.40;99.90;;;;;;4992320;28;20447;-71
2022/11/21 03:04:01;;;;;;;1999.90;999.90;;;5.40;99.90;;;;;;4992503;28;20451;-72
2022/11/21 03:06:28;;;;;;;1999.90;999.90;;;5.40;99.90;;;;;;4992327;28;20457;-72
2022/11/21 03:08:54;;;;;;;1999.90;999.90;;;5.40;99.90;;;;;;4991681;28;20609;-71
2022/11/21 03:11:21;;;;;;;1999.90;999.90;;;5.40;99.90;;;;;;4991785;28;20455;-72
2022/11/21 03:13:48;;;;;;;1999.90;999.90;;;5.40;99.90;;;;;;4991830;28;20451;-72
2022/11/21 03:16:15;;;;;;;1999.90;999.90;;;5.30;99.90;;;;;;4992379;28;20459;-71
2022/11/21 03:18:43;;;;;;;1999.90;999.90;;;5.20;99.90;;;;;;4991627;28;20498;-72
2022/11/21 03:21:09;;;;;;;1999.90;999.90;;;5.20;99.90;;;;;;4992300;28;20470;-72
2022/11/21 03:23:36;;;;;;;1999.90;999.90;;;5.10;99.90;;;;;;4991989;28;20468;-72
2022/11/21 03:26:03;;;;;;;1999.90;999.90;;;5.10;99.90;;;;;;4992145;28;20940;-72
2022/11/21 03:28:30;;;;;;;1999.90;999.90;;;5.10;99.90;;;;;;4991837;28;21150;-72
2022/11/21 03:30:56;;;;;;;1999.90;999.90;;;5.10;99.90;;;;;;4991960;28;20940;-72
2022/11/21 03:33:23;;;;;;;1999.90;999.90;;;5.10;99.90;;;;;;4992096;28;20459;-72
2022/11/21 03:35:51;;;;;;;1999.90;999.90;;;5.10;99.90;;;;;;4991740;28;20498;-72
2022/11/21 03:38:18;;;;;;;1999.90;999.90;;;5.10;99.90;;;;;;4991382;28;20941;-72
2022/11/21 03:40:45;;;;;;;1999.90;999.90;;;5.20;99.90;;;;;;4991489;28;20446;-72
2022/11/21 03:43:11;;;;;;;1999.90;999.90;;;5.20;99.90;;;;;;4991957;28;20446;-72
2022/11/21 03:45:38;;;;;;;1999.90;999.90;;;5.20;99.90;;;;;;4991525;28;20453;-72
2022/11/21 03:48:06;;;;;;;1999.90;999.90;;;5.30;99.90;;;;;;4991769;28;20446;-72
2022/11/21 03:50:32;;;;;;;1999.90;999.90;;;5.40;99.90;;;;;;4991138;28;20468;-72
2022/11/21 03:53:00;;;;;;;1999.90;999.90;;;5.40;99.90;;;;;;4991591;28;20848;-72
2022/11/21 03:55:27;;;;;;;1999.90;999.90;;;5.40;99.90;;;;;;4991357;28;20488;-72
2022/11/21 03:57:54;;;;;;;1999.90;999.90;;;5.50;99.90;;;;;;4991329;28;20447;-72
2022/11/21 04:00:21;;;;;;;1999.90;999.90;;;5.50;99.90;;;;;;4991153;28;20493;-72
2022/11/21 04:02:47;;;;;;;1999.90;999.90;;;5.50;99.90;;;;;;4991202;28;20451;-72
2022/11/21 04:05:14;;;;;;;1999.90;999.90;;;5.60;99.90;;;;;;4991383;28;20451;-72
2022/11/21 04:07:41;;;;;;;1999.90;999.90;;;5.60;99.90;;;;;;4991155;28;20447;-72
2022/11/21 04:10:10;;;;;;;1999.90;999.90;;;5.70;99.90;;;;;;4991139;28;20475;-72
2022/11/21 04:12:37;;;;;;;1999.90;999.90;;;5.70;99.90;;;;;;4991103;28;20948;-72
2022/11/21 04:15:04;;;;;;;1999.90;999.90;;;5.70;99.90;;;;;;4991545;28;20447;-72
2022/11/21 04:17:31;;;;;;;1999.90;999.90;;;5.80;99.90;;;;;;4991167;28;20461;-72
2022/11/21 04:19:58;;;;;;;1999.90;999.90;;;5.80;99.90;;;;;;4990805;28;20549;-72
2022/11/21 04:22:24;;;;;;;1999.90;999.90;;;5.80;99.90;;;;;;4990734;28;20453;-72
2022/11/21 04:24:51;;;;;;;1999.90;999.90;;;5.80;99.90;;;;;;4991152;28;20803;-72
2022/11/21 04:27:19;;;;;;;1999.90;999.90;;;5.80;99.90;;;;;;4991307;28;20454;-72
2022/11/21 04:29:46;;;;;;;1999.90;999.90;;;5.80;99.90;;;;;;4990880;28;20466;-72
2022/11/21 04:32:13;;;;;;;1999.90;999.90;;;5.90;99.90;;;;;;4991667;28;20473;-71
2022/11/21 04:34:40;;;;;;;1999.90;999.90;;;5.90;99.90;;;;;;4990861;28;20808;-71
2022/11/21 04:37:07;;;;;;;1999.90;999.90;;;5.80;99.90;;;;;;4991181;28;20458;-72
2022/11/21 04:39:34;;;;;;;1999.90;999.90;;;5.90;99.90;;;;;;4990327;28;20497;-72
2022/11/21 04:42:01;;;;;;;1999.90;999.90;;;5.90;99.90;;;;;;4991200;28;20445;-72
2022/11/21 04:44:29;;;;;;;1999.90;999.90;;;5.90;99.90;;;;;;4990933;28;20458;-72
2022/11/21 04:46:56;;;;;;;1999.90;999.90;;;5.90;99.90;;;;;;4991505;28;20454;-72
2022/11/21 04:49:22;;;;;;;1999.90;999.90;;;5.90;99.90;;;;;;4990857;28;20837;-72
2022/11/21 04:51:49;;;;;;;1999.90;999.90;;;5.90;99.90;;;;;;4991504;28;20800;-72
2022/11/21 04:54:18;;;;;;;1999.90;999.90;;;5.90;99.90;;;;;;4991521;28;20446;-72
2022/11/21 04:56:45;;;;;;;1999.90;999.90;;;5.90;99.90;;;;;;4990832;28;20446;-72
2022/11/21 04:59:12;;;;;;;1999.90;999.90;;;5.90;99.90;;;;;;4990768;28;20494;-72
2022/11/21 05:01:40;;;;;;;1999.90;999.90;;;6.00;99.90;;;;;;4990890;28;20446;-72
2022/11/21 05:04:06;;;;;;;1999.90;999.90;;;6.00;99.90;;;;;;4991077;28;20447;-72
2022/11/21 05:06:33;;;;;;;1999.90;999.90;;;6.00;99.90;;;;;;4991207;28;20439;-71
2022/11/21 05:09:00;;;;;;;1999.90;999.90;;;6.00;99.90;;;;;;4990905;28;20462;-72
2022/11/21 05:14:11;;;;;;;1999.90;999.90;;;6.00;99.90;;;;;;4991165;28;20430;-72
2022/11/21 05:16:39;;;;;;;1999.90;999.90;;;6.00;99.90;;;;;;4990714;28;20450;-72
2022/11/21 05:19:06;;;;;;;1999.90;999.90;;;6.00;99.90;;;;;;4990237;28;20486;-72
2022/11/21 05:21:33;;;;;;;1999.90;999.90;;;6.10;99.90;;;;;;4990382;28;20458;-71
2022/11/21 05:24:00;;;;;;;1999.90;999.90;;;6.10;99.90;;;;;;4989982;28;20453;-72
2022/11/21 05:26:26;;;;;;;1999.90;999.90;;;6.10;99.90;;;;;;4990190;28;20454;-72
2022/11/21 05:28:53;;;;;;;1999.90;999.90;;;6.20;99.90;;;;;;4985507;28;20467;-71
2022/11/21 05:31:20;;;;;;;1999.90;999.90;;;6.20;99.90;;;;;;4970623;28;20451;-71
2022/11/21 05:33:48;;;;;;;1999.90;999.90;;;6.20;99.90;;;;;;4970947;28;20451;-72
2022/11/21 05:36:15;;;;;;;1999.90;999.90;;;6.30;99.90;;;;;;4971753;28;20466;-72
2022/11/21 05:38:41;;;;;;;1999.90;999.90;;;6.30;99.90;;;;;;4969759;28;20470;-72
2022/11/21 05:41:08;;;;;;;1999.90;999.90;;;6.30;99.90;;;;;;4974378;28;20448;-72
2022/11/21 05:43:48;;;;;;;1999.90;999.90;;;6.30;99.90;;;;;;4974381;28;20482;-71
2022/11/21 05:46:16;;;;;;;1999.90;999.90;;;6.30;99.90;;;;;;4974381;28;20559;-71
2022/11/21 05:48:43;;;;;;;1999.90;999.90;;;6.30;99.90;;;;;;4974008;28;20502;-72
2022/11/21 05:51:11;;;;;;;1999.90;999.90;;;6.40;99.90;;;;;;4974167;28;20447;-73
2022/11/21 05:53:38;;;;;;;1999.90;999.90;;;6.40;99.90;;;;;;4974986;28;20490;-72
2022/11/21 05:56:07;;;;;;;1999.90;999.90;;;6.40;99.90;;;;;;4974885;28;20450;-70
2022/11/21 05:58:34;;;;;;;1999.90;999.90;;;6.50;99.90;;;;;;4974637;28;20458;-71
2022/11/21 06:01:02;;;;;;;1999.90;999.90;;;6.50;99.90;;;;;;4986230;28;20482;-71
2022/11/21 06:03:31;;;;;;;1999.90;999.90;;;6.40;99.90;;;;;;4980440;28;20460;-71
2022/11/21 06:06:03;;;;;;;1999.90;999.90;;;6.30;99.90;;;;;;4959169;28;20460;-70
2022/11/21 06:08:34;;;;;;;1999.90;999.90;;;6.30;99.90;;;;;;4970800;28;20455;-72
2022/11/21 06:11:01;;;;;;;1999.90;999.90;;;6.30;99.90;;;;;;4964511;28;20451;-71
2022/11/21 06:13:28;;;;;;;1999.90;999.90;;;6.20;99.90;;;;;;4964774;28;20981;-71
2022/11/21 06:15:58;;;;;;;1999.90;999.90;;;6.10;99.90;;;;;;4961865;28;20452;-72
2022/11/21 06:18:25;;;;;;;1999.90;999.90;;;6.00;99.90;;;;;;4971419;28;20453;-70
2022/11/21 06:20:52;;;;;;;1999.90;999.90;;;5.90;99.90;;;;;;4969087;28;20495;-72
2022/11/21 06:23:19;;;;;;;1999.90;999.90;;;5.80;99.90;;;;;;4972847;28;20456;-72
2022/11/21 06:25:47;;;;;;;1999.90;999.90;;;5.70;99.90;;;;;;4962916;28;20447;-72
2022/11/21 06:28:14;;;;;;;1999.90;999.90;;;5.70;99.90;;;;;;4956293;28;21841;-71
2022/11/21 06:30:41;;;;;;;1999.90;999.90;;;5.70;99.90;;;;;;4949058;28;20498;-70
2022/11/21 06:33:07;;;;;;;1999.90;999.90;;;5.80;99.90;;;;;;4950371;28;20457;-70
2022/11/21 06:35:38;;;;;;;1999.90;999.90;;;5.80;99.90;;;;;;4947211;28;20447;-70
2022/11/21 06:38:05;;;;;;;1999.90;999.90;;;5.80;99.90;;;;;;4973017;28;20452;-70
2022/11/21 06:40:32;;;;;;;1999.90;999.90;;;5.90;99.90;;;;;;4972987;28;20487;-71
2022/11/21 06:43:00;;;;;;;1999.90;999.90;;;5.80;99.90;;;;;;4972541;28;20447;-70
2022/11/21 06:45:27;;;;;;;1999.90;999.90;;;5.90;99.90;;;;;;4972245;28;20447;-70
2022/11/21 06:47:54;;;;;;;1999.90;999.90;;;5.90;99.90;;;;;;4972874;28;20924;-70
2022/11/21 06:50:21;;;;;;;1999.90;999.90;;;5.80;99.90;;;;;;4972347;28;20494;-70
2022/11/21 06:52:48;;;;;;;1999.90;999.90;;;5.80;99.90;;;;;;4972857;28;20475;-69
2022/11/21 06:55:15;;;;;;;1999.90;999.90;;;5.80;99.90;;;;;;4972754;28;20443;-70
2022/11/21 06:57:42;;;;;;;1999.90;999.90;;;5.80;99.90;;;;;;4973075;28;20459;-70
2022/11/21 07:00:11;;;;;;;1999.90;999.90;;;5.80;99.90;;;;;;4971930;28;20486;-71
2022/11/21 07:02:38;;;;;;;1999.90;999.90;;;5.80;99.90;;;;;;4959827;28;21028;-70
2022/11/21 07:05:05;;;;;;;1999.90;999.90;;;5.80;99.90;;;;;;4953443;29;20519;-70
2022/11/21 07:07:32;;;;;;;1999.90;999.90;;;5.80;99.90;;;;;;4953491;28;20467;-71
2022/11/21 07:09:59;;;;;;;1999.90;999.90;;;5.80;99.90;;;;;;4952830;29;20488;-70
2022/11/21 07:15:12;;;;;;;1999.90;999.90;;;5.90;99.90;;;;;;4953152;28;20427;-71
2022/11/21 07:17:38;;;;;;;1999.90;999.90;;;6.00;99.90;;;;;;4953115;28;20461;-71
2022/11/21 07:20:06;;;;;;;1999.90;999.90;;;6.00;99.90;;;;;;4952671;28;20499;-70
2022/11/21 07:22:33;;;;;;;1999.90;999.90;;;6.00;99.90;;;;;;4952924;28;20471;-71
2022/11/21 07:25:00;;;;;;;1999.90;999.90;;;6.00;99.90;;;;;;4952881;29;20811;-71
2022/11/21 07:27:27;;;;;;;1999.90;999.90;;;6.00;99.90;;;;;;4952748;28;20943;-69
2022/11/21 07:29:56;;;;;;;1999.90;999.90;;;6.00;99.90;;;;;;4952337;28;20480;-70
2022/11/21 07:32:24;;;;;;;1999.90;999.90;;;6.10;99.90;;;;;;4952610;28;20523;-68
2022/11/21 07:34:51;;;;;;;1999.90;999.90;;;6.10;99.90;;;;;;4953122;28;20453;-70
2022/11/21 07:37:17;;;;;;;1999.90;999.90;;;6.20;99.90;;;;;;4953362;29;20457;-71
2022/11/21 07:39:44;;;;;;;1999.90;999.90;;;6.20;99.90;;;;;;4952876;28;20491;-70
2022/11/21 07:42:11;;;;;;;1999.90;999.90;;;6.20;99.90;;;;;;4952689;29;20454;-70
2022/11/21 07:44:38;;;;;;;1999.90;999.90;;;6.30;99.90;;;;;;4952586;28;20463;-70
2022/11/21 07:47:05;;;;;;;1999.90;999.90;;;6.30;99.90;;;;;;4952543;29;20955;-70
2022/11/21 07:49:33;;;;;;;1999.90;999.90;;;6.30;99.90;;;;;;4952323;29;20476;-71
2022/11/21 07:52:00;;;;;;;1999.90;999.90;;;6.30;99.90;;;;;;4952573;29;20456;-70
2022/11/21 07:54:27;;;;;;;1999.90;999.90;;;6.30;99.90;;;;;;4952494;29;20453;-70
2022/11/21 07:56:55;;;;;;;1999.90;999.90;;;6.30;99.90;;;;;;4952471;28;20531;-71
2022/11/21 07:59:21;;;;;;;1999.90;999.90;;;6.30;99.90;;;;;;4952153;29;20843;-70
2022/11/21 08:01:50;;;;;;;1999.90;999.90;;;6.30;99.90;;;;;;4952626;28;20480;-70
2022/11/21 08:04:17;;;;;;;1999.90;999.90;;;6.30;99.90;;;;;;4974743;28;20446;-70
2022/11/21 08:06:45;;;;;;;1999.90;999.90;;;6.40;99.90;;;;;;4991233;28;20459;-71
2022/11/21 08:09:12;;;;;;;1999.90;999.90;;;6.40;99.90;;;;;;4990773;28;20477;-71
2022/11/21 08:11:38;;;;;;;1999.90;999.90;;;6.50;99.90;;;;;;4990927;28;20459;-70
2022/11/21 08:14:05;;;;;;;1999.90;999.90;;;6.60;99.90;;;;;;4991230;28;20446;-71
2022/11/21 08:16:32;;;;;;;1999.90;999.90;;;6.70;99.90;;;;;;4991152;28;20481;-71
2022/11/21 08:18:59;;;;;;;1999.90;999.90;;;6.90;99.90;;;;;;4990771;28;20471;-71
2022/11/21 08:21:26;;;;;;;1999.90;999.90;;;7.20;99.90;;;;;;4991053;28;20486;-70
2022/11/21 08:23:54;;;;;;;1999.90;999.90;;;7.50;99.90;;;;;;4990833;28;20457;-71
2022/11/21 08:26:21;;;;;;;1999.90;999.90;;;7.80;99.90;;;;;;4990906;28;20459;-70
2022/11/21 08:28:48;;;;;;;1999.90;999.90;;;8.00;99.90;;;;;;4990675;28;20478;-70
2022/11/21 08:31:15;;;;;;;1999.90;999.90;;;8.20;99.90;;;;;;4990872;28;20442;-71
2022/11/21 08:33:42;;;;;;;1999.90;999.90;;;8.30;99.90;;;;;;4991144;28;20446;-70
2022/11/21 08:36:09;;;;;;;1999.90;999.90;;;8.40;99.90;;;;;;4990831;28;20451;-70
2022/11/21 08:38:36;;;;;;;1999.90;999.90;;;8.30;99.90;;;;;;4990398;28;20457;-69
2022/11/21 08:43:48;;;;;;;1999.90;999.90;;;8.20;99.90;;;;;;4990932;28;20422;-70
2022/11/21 08:46:16;;;;;;;1999.90;999.90;;;8.20;99.90;;;;;;4990777;28;20450;-70
2022/11/21 08:48:42;;;;;;;1999.90;999.90;;;8.20;99.90;;;;;;4990375;28;20479;-70
2022/11/21 08:51:09;;;;;;;1999.90;999.90;;;8.10;99.90;;;;;;4990543;28;20447;-70
2022/11/21 08:53:36;;;;;;;1999.90;999.90;;;8.00;99.90;;;;;;4990862;28;20449;-69
2022/11/21 08:56:04;;;;;;;1999.90;999.90;;;8.00;99.90;;;;;;4971490;28;20476;-69
2022/11/21 08:58:31;;;;;;;1999.90;999.90;;;8.00;99.90;;;;;;4968550;28;20444;-69
2022/11/21 09:00:59;;;;;;;1999.90;999.90;;;8.00;99.90;;;;;;4968798;28;20489;-70
2022/11/21 09:03:26;;;;;;;1999.90;999.90;;;8.10;99.90;;;;;;4968842;28;20451;-70
2022/11/21 09:05:52;;;;;;;1999.90;999.90;;;8.20;99.90;;;;;;4968796;28;20455;-70
2022/11/21 09:08:19;;;;;;;1999.90;999.90;;;8.30;99.90;;;;;;4968466;28;20448;-69
2022/11/21 09:10:46;;;;;;;1999.90;999.90;;;8.50;99.90;;;;;;4972250;28;20452;-69
2022/11/21 09:13:14;;;;;;;1999.90;999.90;;;8.90;99.90;;;;;;4972700;28;20455;-70
2022/11/21 09:18:25;;;;;;;1999.90;999.90;;;9.70;99.90;;;;;;4972690;28;20568;-71
2022/11/21 09:20:52;;;;;;;1999.90;999.90;;;10.10;99.90;;;;;;4973116;28;20479;-70
2022/11/21 09:23:19;;;;;;;1999.90;999.90;;;10.40;99.90;;;;;;4973026;28;20971;-70
2022/11/21 09:25:46;;;;;;;1999.90;999.90;;;10.60;99.90;;;;;;4972709;28;20490;-70
2022/11/21 09:28:14;;;;;;;1999.90;999.90;;;10.70;99.90;;;;;;4972014;28;20455;-70
2022/11/21 09:30:42;;;;;;;1999.90;999.90;;;10.80;99.90;;;;;;4972335;28;20467;-69
2022/11/21 09:33:12;;;;;;;1999.90;999.90;;;10.40;99.90;;;;;;4972570;28;20448;-70
2022/11/21 09:35:39;;;;;;;1999.90;999.90;;;10.20;99.90;;;;;;4972895;28;20845;-71
2022/11/21 09:38:06;;;;;;;1999.90;999.90;;;10.10;99.90;;;;;;4972664;28;20473;-71
2022/11/21 09:40:34;;;;;;;1999.90;999.90;;;10.10;99.90;;;;;;4971936;28;20498;-71
2022/11/21 09:43:30;;;;;;;1999.90;999.90;;;9.90;99.90;;;;;;4972161;28;20454;-72
2022/11/21 09:46:02;;;;;;;1999.90;999.90;;;9.70;99.90;;;;;;4972260;28;20456;-72
2022/11/21 09:48:34;;;;;;;1999.90;999.90;;;9.70;99.90;;;;;;4972227;28;20860;-72
2022/11/21 09:51:09;;;;;;;1999.90;999.90;;;9.80;99.90;;;;;;4972491;28;20448;-71
2022/11/21 09:53:39;;;;;;;1999.90;999.90;;;10.00;99.90;;;;;;4972424;28;20447;-71
2022/11/21 09:56:11;;;;;;;1999.90;999.90;;;10.30;99.90;;;;;;4972214;28;20461;-72
2022/11/21 09:58:42;;;;;;;1999.90;999.90;;;10.70;99.90;;;;;;4971898;28;20506;-72
2022/11/21 10:01:12;;;;;;;1999.90;999.90;;;11.00;99.90;;;;;;4972079;28;20491;-71
2022/11/21 10:03:45;;;;;;;1999.90;999.90;;;11.10;99.90;;;;;;4972490;28;20451;-71
2022/11/21 10:06:18;;;;;;;1999.90;999.90;;;11.30;99.90;;;;;;4972027;28;20459;-72
2022/11/21 10:08:55;;;;;;;1999.90;999.90;;;11.50;99.90;;;;;;4971952;28;20471;-72
2022/11/21 10:11:33;;;;;;;1999.90;999.90;;;11.70;99.90;;;;;;4971489;28;20879;-71
2022/11/21 10:14:13;;;;;;;1999.90;999.90;;;11.60;99.90;;;;;;4971675;28;20449;-72
2022/11/21 10:16:48;;;;;;;1999.90;999.90;;;11.00;99.90;;;;;;4971739;28;20458;-70
2022/11/21 10:19:39;;;;;;;1999.90;999.90;;;11.00;99.90;;;;;;4970923;28;20478;-71
2022/11/21 10:22:28;;;;;;;1999.90;999.90;;;11.80;99.90;;;;;;4970324;28;20483;-71
2022/11/21 10:25:03;;;;;;;1999.90;999.90;;;13.00;99.90;;;;;;4971369;28;20968;-71
2022/11/21 10:27:36;;;;;;;1999.90;999.90;;;13.80;99.90;;;;;;4971600;28;20454;-69
2022/11/21 10:30:06;;;;;;;1999.90;999.90;;;14.30;99.90;;;;;;4971178;28;20460;-71
2022/11/21 10:32:39;;;;;;;1999.90;999.90;;;15.00;99.90;;;;;;4971664;28;20799;-70
2022/11/21 10:35:14;;;;;;;1999.90;999.90;;;15.20;99.90;;;;;;4971294;28;20452;-71
2022/11/21 10:37:45;;;;;;;1999.90;999.90;;;15.00;99.90;;;;;;4971562;28;20452;-71
2022/11/21 10:40:35;;;;;;;1999.90;999.90;;;14.00;99.90;;;;;;4972865;28;20482;-71
2022/11/21 10:45:15;;;;;;;1999.90;999.90;;;13.50;99.90;;;;;;4990889;28;20462;-71
2022/11/21 10:45:53;;;;;;;1999.90;999.90;;;12.90;99.90;;;;;;4990509;28;20481;-70
2022/11/21 10:48:20;;;;;;;1999.90;999.90;;;12.50;99.90;;;;;;4990899;28;20450;-70
2022/11/21 10:51:03;;;;;;;1999.90;999.90;;;12.00;99.90;;;;;;4990811;28;20447;-71
2022/11/21 10:56:18;;;;;;;1999.90;999.90;;;12.20;99.90;;;;;;4985047;28;20542;-69
2022/11/21 10:58:46;;;;;;;1999.90;999.90;;;11.90;99.90;;;;;;4952600;28;20465;-71
2022/11/21 11:01:23;;;;;;;1999.90;999.90;;;11.80;99.90;;;;;;4952374;28;20492;-71
2022/11/21 11:04:21;;;;;;;1999.90;999.90;;;11.90;99.90;;;;;;4951842;28;20441;-70
2022/11/21 11:06:48;;;;;;;1999.90;999.90;;;11.70;99.90;;;;;;4950262;28;20922;-70
2022/11/21 11:09:29;;;;;;;1999.90;999.90;;;10.60;99.90;;;;;;4950764;28;20480;-70
2022/11/21 11:12:23;;;;;;;1999.90;999.90;;;9.50;99.90;;;;;;4952022;28;20821;-69
2022/11/21 11:14:52;;;;;;;1999.90;999.90;;;8.80;99.90;;;;;;4951741;28;20938;-70
2022/11/21 11:17:29;;;;;;;1999.90;999.90;;;8.60;99.90;;;;;;4951395;28;20941;-71
2022/11/21 11:20:05;;;;;;;1999.90;999.90;;;8.60;99.90;;;;;;4951641;28;20467;-71
2022/11/21 11:22:32;;;;;;;1999.90;999.90;;;8.40;99.90;;;;;;4951505;28;20491;-71
2022/11/21 11:25:03;;;;;;;1999.90;999.90;;;8.50;99.90;;;;;;4951983;28;20449;-71
2022/11/21 11:27:29;;;;;;;1999.90;999.90;;;8.60;99.90;;;;;;4955384;28;21096;-71
2022/11/21 11:29:56;;;;;;;1999.90;999.90;;;8.80;99.90;;;;;;4981982;28;20997;-71
2022/11/21 11:32:23;;;;;;;1999.90;999.90;;;8.90;99.90;;;;;;4984043;28;20442;-70
2022/11/21 11:34:59;;;;;;;1999.90;999.90;;;9.10;99.90;;;;;;4989976;28;20446;-71
2022/11/21 11:37:35;;;;;;;1999.90;999.90;;;9.20;99.90;;;;;;4989893;28;20454;-71
2022/11/21 11:40:15;;;;;;;1999.90;999.90;;;9.20;99.90;;;;;;4989102;28;20487;-69
2022/11/21 11:49:04;;;;;;;1999.90;999.90;;;9.60;99.90;;;;;;4976009;28;20562;-70
2022/11/21 11:51:38;;;;;;;1999.90;999.90;;;9.80;99.90;;;;;;4988695;28;20450;-70
2022/11/21 11:54:12;;;;;;;1999.90;999.90;;;10.00;99.90;;;;;;4988692;28;20517;-70
2022/11/21 11:56:39;;;;;;;1999.90;999.90;;;10.30;99.90;;;;;;4982949;28;20463;-70
2022/11/21 11:59:14;;;;;;;1999.90;999.90;;;10.30;99.90;;;;;;4969288;28;20484;-71
2022/11/21 12:01:45;;;;;;;1999.90;999.90;;;10.30;99.90;;;;;;4969683;28;20479;-74
2022/11/21 12:04:15;;;;;;;1999.90;999.90;;;10.30;99.90;;;;;;4969046;28;20454;-72
2022/11/21 12:06:48;;;;;;;1999.90;999.90;;;10.10;99.90;;;;;;4963236;28;20946;-70
2022/11/21 12:09:23;;;;;;;1999.90;999.90;;;10.10;99.90;;;;;;4968802;28;21195;-70
2022/11/21 12:12:06;;;;;;;1999.90;999.90;;;10.10;99.90;;;;;;4978355;28;20454;-71
2022/11/21 12:17:47;;;;;;;1999.90;999.90;;;10.50;99.90;;;;;;4986985;28;20421;-70
2022/11/21 12:20:19;;;;;;;1999.90;999.90;;;10.80;99.90;;;;;;4979967;28;20851;-70
2022/11/21 12:22:49;;;;;;;1999.90;999.90;;;11.00;99.90;;;;;;4988630;28;20493;-69
2022/11/21 12:25:18;;;;;;;1999.90;999.90;;;10.90;99.90;;;;;;4988463;28;20446;-72
2022/11/21 12:27:50;;;;;;;1999.90;999.90;;;10.80;99.90;;;;;;4988244;28;20513;-71
2022/11/21 12:30:35;;;;;;;1999.90;999.90;;;10.70;99.90;;;;;;4987211;28;20479;-71
2022/11/21 12:33:04;;;;;;;1999.90;999.90;;;10.50;99.90;;;;;;4988422;28;20863;-71
2022/11/21 12:35:56;;;;;;;1999.90;999.90;;;10.40;99.90;;;;;;4988177;28;20447;-71
2022/11/21 12:38:44;;;;;;;1999.90;999.90;;;10.20;99.90;;;;;;4979290;28;20991;-69